sensor_id;sensor_type;location;lat;lon;timestamp;P1;durP1;ratioP1;P2;durP2;ratioP2
9076;SDS011;4574;51.072;17.174;2023-02-15T00:01:16;82.67;;;37.13;;
9076;SDS011;4574;51.072;17.174;2023-02-15T00:03:47;104.37;;;45.10;;
9076;SDS011;4574;51.072;17.174;2023-02-15T00:06:17;86.87;;;37.67;;
9076;SDS011;4574;51.072;17.174;2023-02-15T00:08:46;56.27;;;27.23;;
9076;SDS011;4574;51.072;17.174;2023-02-15T00:11:15;52.03;;;25.97;;
9076;SDS011;4574;51.072;17.174;2023-02-15T00:14:05;46.77;;;24.03;;
9076;SDS011;4574;51.072;17.174;2023-02-15T00:16:35;52.43;;;25.20;;
9076;SDS011;4574;51.072;17.174;2023-02-15T00:19:04;43.77;;;23.57;;
9076;SDS011;4574;51.072;17.174;2023-02-15T00:21:34;182.43;;;81.40;;
9076;SDS011;4574;51.072;17.174;2023-02-15T00:24:04;369.37;;;171.57;;
9076;SDS011;4574;51.072;17.174;2023-02-15T00:26:34;313.67;;;128.43;;
9076;SDS011;4574;51.072;17.174;2023-02-15T00:29:03;310.47;;;139.57;;
9076;SDS011;4574;51.072;17.174;2023-02-15T00:31:32;124.73;;;56.07;;
9076;SDS011;4574;51.072;17.174;2023-02-15T00:34:01;96.03;;;41.40;;
9076;SDS011;4574;51.072;17.174;2023-02-15T00:36:30;89.63;;;41.17;;
9076;SDS011;4574;51.072;17.174;2023-02-15T00:39:00;81.93;;;39.67;;
9076;SDS011;4574;51.072;17.174;2023-02-15T00:41:28;77.30;;;38.53;;
9076;SDS011;4574;51.072;17.174;2023-02-15T00:43:57;71.07;;;35.63;;
9076;SDS011;4574;51.072;17.174;2023-02-15T00:46:25;65.20;;;33.70;;
9076;SDS011;4574;51.072;17.174;2023-02-15T00:48:53;63.23;;;32.47;;
9076;SDS011;4574;51.072;17.174;2023-02-15T00:51:22;63.73;;;33.17;;
9076;SDS011;4574;51.072;17.174;2023-02-15T00:53:51;57.63;;;29.97;;
9076;SDS011;4574;51.072;17.174;2023-02-15T00:56:21;61.73;;;31.57;;
9076;SDS011;4574;51.072;17.174;2023-02-15T00:58:49;62.43;;;33.03;;
9076;SDS011;4574;51.072;17.174;2023-02-15T01:01:18;60.30;;;31.83;;
9076;SDS011;4574;51.072;17.174;2023-02-15T01:03:48;57.17;;;29.90;;
9076;SDS011;4574;51.072;17.174;2023-02-15T01:06:17;58.23;;;29.30;;
9076;SDS011;4574;51.072;17.174;2023-02-15T01:08:46;50.63;;;28.13;;
9076;SDS011;4574;51.072;17.174;2023-02-15T01:11:16;54.40;;;27.43;;
9076;SDS011;4574;51.072;17.174;2023-02-15T01:14:09;56.50;;;27.63;;
9076;SDS011;4574;51.072;17.174;2023-02-15T01:16:38;58.10;;;29.50;;
9076;SDS011;4574;51.072;17.174;2023-02-15T01:19:06;55.27;;;30.33;;
9076;SDS011;4574;51.072;17.174;2023-02-15T01:21:35;55.93;;;31.90;;
9076;SDS011;4574;51.072;17.174;2023-02-15T01:24:04;64.40;;;32.97;;
9076;SDS011;4574;51.072;17.174;2023-02-15T01:26:32;56.93;;;29.20;;
9076;SDS011;4574;51.072;17.174;2023-02-15T01:29:01;54.07;;;28.93;;
9076;SDS011;4574;51.072;17.174;2023-02-15T01:31:31;55.83;;;28.50;;
9076;SDS011;4574;51.072;17.174;2023-02-15T01:33:59;60.50;;;29.13;;
9076;SDS011;4574;51.072;17.174;2023-02-15T01:36:28;63.53;;;30.47;;
9076;SDS011;4574;51.072;17.174;2023-02-15T01:38:57;61.83;;;30.20;;
9076;SDS011;4574;51.072;17.174;2023-02-15T01:41:25;56.00;;;28.90;;
9076;SDS011;4574;51.072;17.174;2023-02-15T01:43:55;58.33;;;29.70;;
9076;SDS011;4574;51.072;17.174;2023-02-15T01:46:26;59.70;;;30.07;;
9076;SDS011;4574;51.072;17.174;2023-02-15T01:49:02;68.93;;;32.60;;
9076;SDS011;4574;51.072;17.174;2023-02-15T01:51:35;85.33;;;39.57;;
9076;SDS011;4574;51.072;17.174;2023-02-15T01:54:07;75.17;;;36.77;;
9076;SDS011;4574;51.072;17.174;2023-02-15T01:56:39;57.47;;;30.47;;
9076;SDS011;4574;51.072;17.174;2023-02-15T01:59:09;57.50;;;31.47;;
9076;SDS011;4574;51.072;17.174;2023-02-15T02:01:41;51.43;;;29.10;;
9076;SDS011;4574;51.072;17.174;2023-02-15T02:04:13;56.83;;;29.57;;
9076;SDS011;4574;51.072;17.174;2023-02-15T02:06:46;55.20;;;29.43;;
9076;SDS011;4574;51.072;17.174;2023-02-15T02:09:17;63.50;;;32.23;;
9076;SDS011;4574;51.072;17.174;2023-02-15T02:11:46;67.53;;;33.43;;
9076;SDS011;4574;51.072;17.174;2023-02-15T02:14:15;74.03;;;33.00;;
9076;SDS011;4574;51.072;17.174;2023-02-15T02:16:47;63.00;;;32.30;;
9076;SDS011;4574;51.072;17.174;2023-02-15T02:28:49;54.37;;;28.00;;
9076;SDS011;4574;51.072;17.174;2023-02-15T02:37:42;71.43;;;31.37;;
9076;SDS011;4574;51.072;17.174;2023-02-15T02:40:16;70.90;;;31.07;;
9076;SDS011;4574;51.072;17.174;2023-02-15T02:42:54;178.90;;;57.70;;
9076;SDS011;4574;51.072;17.174;2023-02-15T02:45:28;219.67;;;61.50;;
9076;SDS011;4574;51.072;17.174;2023-02-15T02:48:03;107.23;;;42.43;;
9076;SDS011;4574;51.072;17.174;2023-02-15T02:50:38;169.83;;;52.03;;
9076;SDS011;4574;51.072;17.174;2023-02-15T02:53:08;126.60;;;43.43;;
9076;SDS011;4574;51.072;17.174;2023-02-15T02:55:38;86.33;;;36.30;;
9076;SDS011;4574;51.072;17.174;2023-02-15T02:58:11;75.83;;;33.77;;
9076;SDS011;4574;51.072;17.174;2023-02-15T03:00:45;72.67;;;30.97;;
9076;SDS011;4574;51.072;17.174;2023-02-15T03:03:18;95.73;;;36.67;;
9076;SDS011;4574;51.072;17.174;2023-02-15T03:05:53;75.70;;;33.23;;
9076;SDS011;4574;51.072;17.174;2023-02-15T03:08:23;68.10;;;29.70;;
9076;SDS011;4574;51.072;17.174;2023-02-15T03:10:56;68.83;;;30.80;;
9076;SDS011;4574;51.072;17.174;2023-02-15T03:13:28;59.07;;;27.40;;
9076;SDS011;4574;51.072;17.174;2023-02-15T03:15:56;57.53;;;26.73;;
9076;SDS011;4574;51.072;17.174;2023-02-15T03:18:46;52.20;;;26.47;;
9076;SDS011;4574;51.072;17.174;2023-02-15T03:21:20;54.10;;;26.10;;
9076;SDS011;4574;51.072;17.174;2023-02-15T03:23:52;51.90;;;26.50;;
9076;SDS011;4574;51.072;17.174;2023-02-15T03:26:25;51.53;;;26.73;;
9076;SDS011;4574;51.072;17.174;2023-02-15T03:28:56;50.80;;;27.17;;
9076;SDS011;4574;51.072;17.174;2023-02-15T03:31:28;54.07;;;30.17;;
9076;SDS011;4574;51.072;17.174;2023-02-15T03:34:00;49.73;;;27.10;;
9076;SDS011;4574;51.072;17.174;2023-02-15T03:36:34;52.57;;;28.30;;
9076;SDS011;4574;51.072;17.174;2023-02-15T03:39:11;57.97;;;28.87;;
9076;SDS011;4574;51.072;17.174;2023-02-15T03:41:48;47.33;;;25.70;;
9076;SDS011;4574;51.072;17.174;2023-02-15T03:44:25;45.63;;;25.13;;
9076;SDS011;4574;51.072;17.174;2023-02-15T03:46:58;44.43;;;24.17;;
9076;SDS011;4574;51.072;17.174;2023-02-15T03:49:34;40.97;;;21.70;;
9076;SDS011;4574;51.072;17.174;2023-02-15T03:52:11;39.13;;;22.67;;
9076;SDS011;4574;51.072;17.174;2023-02-15T03:54:42;42.13;;;22.33;;
9076;SDS011;4574;51.072;17.174;2023-02-15T03:57:14;39.37;;;21.10;;
9076;SDS011;4574;51.072;17.174;2023-02-15T04:00:08;37.83;;;21.40;;
9076;SDS011;4574;51.072;17.174;2023-02-15T04:03:07;46.97;;;22.70;;
9076;SDS011;4574;51.072;17.174;2023-02-15T04:05:40;38.90;;;20.77;;
9076;SDS011;4574;51.072;17.174;2023-02-15T04:08:12;33.97;;;17.83;;
9076;SDS011;4574;51.072;17.174;2023-02-15T04:10:40;34.10;;;18.43;;
9076;SDS011;4574;51.072;17.174;2023-02-15T04:13:20;36.30;;;20.73;;
9076;SDS011;4574;51.072;17.174;2023-02-15T04:15:49;35.00;;;19.47;;
9076;SDS011;4574;51.072;17.174;2023-02-15T04:18:34;34.47;;;18.87;;
9076;SDS011;4574;51.072;17.174;2023-02-15T04:21:21;47.60;;;23.50;;
9076;SDS011;4574;51.072;17.174;2023-02-15T04:24:10;50.50;;;24.33;;
9076;SDS011;4574;51.072;17.174;2023-02-15T04:26:57;60.57;;;27.80;;
9076;SDS011;4574;51.072;17.174;2023-02-15T04:29:26;55.37;;;26.73;;
9076;SDS011;4574;51.072;17.174;2023-02-15T04:31:55;42.77;;;20.87;;
9076;SDS011;4574;51.072;17.174;2023-02-15T04:34:25;35.93;;;20.37;;
9076;SDS011;4574;51.072;17.174;2023-02-15T04:36:54;33.77;;;19.90;;
9076;SDS011;4574;51.072;17.174;2023-02-15T04:39:24;33.93;;;18.87;;
9076;SDS011;4574;51.072;17.174;2023-02-15T04:41:52;32.47;;;19.37;;
9076;SDS011;4574;51.072;17.174;2023-02-15T04:44:21;38.00;;;21.33;;
9076;SDS011;4574;51.072;17.174;2023-02-15T04:46:49;36.70;;;21.00;;
9076;SDS011;4574;51.072;17.174;2023-02-15T04:49:17;38.83;;;21.17;;
9076;SDS011;4574;51.072;17.174;2023-02-15T04:51:46;36.17;;;21.30;;
9076;SDS011;4574;51.072;17.174;2023-02-15T04:54:14;38.80;;;22.03;;
9076;SDS011;4574;51.072;17.174;2023-02-15T04:56:44;38.13;;;21.10;;
9076;SDS011;4574;51.072;17.174;2023-02-15T04:59:13;39.37;;;21.37;;
9076;SDS011;4574;51.072;17.174;2023-02-15T05:01:41;37.43;;;21.77;;
9076;SDS011;4574;51.072;17.174;2023-02-15T05:04:10;35.93;;;21.00;;
9076;SDS011;4574;51.072;17.174;2023-02-15T05:06:38;38.13;;;20.33;;
9076;SDS011;4574;51.072;17.174;2023-02-15T05:09:07;38.57;;;20.67;;
9076;SDS011;4574;51.072;17.174;2023-02-15T05:11:35;35.43;;;21.13;;
9076;SDS011;4574;51.072;17.174;2023-02-15T05:14:05;36.93;;;21.77;;
9076;SDS011;4574;51.072;17.174;2023-02-15T05:16:34;39.13;;;21.57;;
9076;SDS011;4574;51.072;17.174;2023-02-15T05:19:02;35.90;;;20.77;;
9076;SDS011;4574;51.072;17.174;2023-02-15T05:21:31;40.33;;;21.70;;
9076;SDS011;4574;51.072;17.174;2023-02-15T05:23:59;40.30;;;22.00;;
9076;SDS011;4574;51.072;17.174;2023-02-15T05:26:48;44.83;;;22.30;;
9076;SDS011;4574;51.072;17.174;2023-02-15T05:29:35;36.17;;;22.73;;
9076;SDS011;4574;51.072;17.174;2023-02-15T05:32:04;40.17;;;22.00;;
9076;SDS011;4574;51.072;17.174;2023-02-15T05:34:33;42.90;;;24.53;;
9076;SDS011;4574;51.072;17.174;2023-02-15T05:37:01;49.53;;;30.27;;
9076;SDS011;4574;51.072;17.174;2023-02-15T05:39:30;57.37;;;31.43;;
9076;SDS011;4574;51.072;17.174;2023-02-15T05:41:58;60.40;;;31.27;;
9076;SDS011;4574;51.072;17.174;2023-02-15T05:44:27;46.70;;;27.43;;
9076;SDS011;4574;51.072;17.174;2023-02-15T05:46:56;42.67;;;24.37;;
9076;SDS011;4574;51.072;17.174;2023-02-15T05:49:25;45.10;;;24.83;;
9076;SDS011;4574;51.072;17.174;2023-02-15T05:51:53;39.70;;;22.30;;
9076;SDS011;4574;51.072;17.174;2023-02-15T05:54:21;45.13;;;22.27;;
9076;SDS011;4574;51.072;17.174;2023-02-15T05:56:50;36.47;;;21.27;;
9076;SDS011;4574;51.072;17.174;2023-02-15T05:59:19;37.73;;;22.03;;
9076;SDS011;4574;51.072;17.174;2023-02-15T06:01:47;37.53;;;21.10;;
9076;SDS011;4574;51.072;17.174;2023-02-15T06:04:17;37.87;;;20.57;;
9076;SDS011;4574;51.072;17.174;2023-02-15T06:06:46;37.20;;;19.27;;
9076;SDS011;4574;51.072;17.174;2023-02-15T06:09:14;35.20;;;20.63;;
9076;SDS011;4574;51.072;17.174;2023-02-15T06:11:44;36.30;;;20.60;;
9076;SDS011;4574;51.072;17.174;2023-02-15T06:14:13;37.93;;;20.97;;
9076;SDS011;4574;51.072;17.174;2023-02-15T06:16:41;38.73;;;20.10;;
9076;SDS011;4574;51.072;17.174;2023-02-15T06:19:10;36.37;;;19.93;;
9076;SDS011;4574;51.072;17.174;2023-02-15T06:21:40;38.90;;;20.73;;
9076;SDS011;4574;51.072;17.174;2023-02-15T06:24:08;38.53;;;21.20;;
9076;SDS011;4574;51.072;17.174;2023-02-15T06:26:37;36.77;;;19.67;;
9076;SDS011;4574;51.072;17.174;2023-02-15T06:29:05;41.70;;;21.33;;
9076;SDS011;4574;51.072;17.174;2023-02-15T06:31:34;40.27;;;21.13;;
9076;SDS011;4574;51.072;17.174;2023-02-15T06:34:03;39.37;;;21.50;;
9076;SDS011;4574;51.072;17.174;2023-02-15T06:36:32;39.20;;;21.50;;
9076;SDS011;4574;51.072;17.174;2023-02-15T06:39:02;38.93;;;21.47;;
9076;SDS011;4574;51.072;17.174;2023-02-15T06:41:30;40.97;;;19.93;;
9076;SDS011;4574;51.072;17.174;2023-02-15T06:43:59;35.37;;;19.63;;
9076;SDS011;4574;51.072;17.174;2023-02-15T06:46:27;42.53;;;21.37;;
9076;SDS011;4574;51.072;17.174;2023-02-15T06:48:56;41.83;;;25.13;;
9076;SDS011;4574;51.072;17.174;2023-02-15T06:51:24;45.60;;;24.00;;
9076;SDS011;4574;51.072;17.174;2023-02-15T06:53:53;47.10;;;25.17;;
9076;SDS011;4574;51.072;17.174;2023-02-15T06:56:23;45.13;;;24.53;;
9076;SDS011;4574;51.072;17.174;2023-02-15T06:58:51;47.53;;;27.33;;
9076;SDS011;4574;51.072;17.174;2023-02-15T07:01:20;54.87;;;28.83;;
9076;SDS011;4574;51.072;17.174;2023-02-15T07:03:48;52.10;;;28.20;;
9076;SDS011;4574;51.072;17.174;2023-02-15T07:06:17;60.50;;;29.03;;
9076;SDS011;4574;51.072;17.174;2023-02-15T07:08:45;57.13;;;27.67;;
9076;SDS011;4574;51.072;17.174;2023-02-15T07:11:14;53.87;;;27.83;;
9076;SDS011;4574;51.072;17.174;2023-02-15T07:14:01;57.03;;;29.30;;
9076;SDS011;4574;51.072;17.174;2023-02-15T07:16:29;50.50;;;27.53;;
9076;SDS011;4574;51.072;17.174;2023-02-15T07:18:58;59.77;;;30.33;;
9076;SDS011;4574;51.072;17.174;2023-02-15T07:21:26;66.50;;;32.80;;
9076;SDS011;4574;51.072;17.174;2023-02-15T07:23:55;98.67;;;41.13;;
9076;SDS011;4574;51.072;17.174;2023-02-15T07:26:25;94.03;;;39.83;;
9076;SDS011;4574;51.072;17.174;2023-02-15T07:28:53;63.00;;;31.93;;
9076;SDS011;4574;51.072;17.174;2023-02-15T07:31:23;49.90;;;26.93;;
9076;SDS011;4574;51.072;17.174;2023-02-15T07:33:51;48.30;;;25.80;;
9076;SDS011;4574;51.072;17.174;2023-02-15T07:36:20;45.73;;;23.83;;
9076;SDS011;4574;51.072;17.174;2023-02-15T07:38:48;52.27;;;26.27;;
9076;SDS011;4574;51.072;17.174;2023-02-15T07:41:17;56.23;;;27.00;;
9076;SDS011;4574;51.072;17.174;2023-02-15T07:43:45;57.20;;;26.17;;
9076;SDS011;4574;51.072;17.174;2023-02-15T07:46:15;53.13;;;26.40;;
9076;SDS011;4574;51.072;17.174;2023-02-15T07:48:46;48.07;;;26.67;;
9076;SDS011;4574;51.072;17.174;2023-02-15T07:51:14;48.30;;;25.17;;
9076;SDS011;4574;51.072;17.174;2023-02-15T07:53:43;46.30;;;25.10;;
9076;SDS011;4574;51.072;17.174;2023-02-15T07:56:12;45.93;;;24.70;;
9076;SDS011;4574;51.072;17.174;2023-02-15T07:58:42;42.47;;;23.67;;
9076;SDS011;4574;51.072;17.174;2023-02-15T08:01:20;47.77;;;24.40;;
9076;SDS011;4574;51.072;17.174;2023-02-15T08:03:52;39.00;;;23.30;;
9076;SDS011;4574;51.072;17.174;2023-02-15T08:06:21;45.10;;;24.97;;
9076;SDS011;4574;51.072;17.174;2023-02-15T08:08:51;45.00;;;23.00;;
9076;SDS011;4574;51.072;17.174;2023-02-15T08:11:20;43.20;;;23.60;;
9076;SDS011;4574;51.072;17.174;2023-02-15T08:14:03;40.57;;;23.67;;
9076;SDS011;4574;51.072;17.174;2023-02-15T08:16:34;44.77;;;25.20;;
9076;SDS011;4574;51.072;17.174;2023-02-15T08:19:06;40.57;;;22.93;;
9076;SDS011;4574;51.072;17.174;2023-02-15T08:21:37;40.13;;;23.57;;
9076;SDS011;4574;51.072;17.174;2023-02-15T08:24:07;41.20;;;23.20;;
9076;SDS011;4574;51.072;17.174;2023-02-15T08:26:36;46.20;;;23.87;;
9076;SDS011;4574;51.072;17.174;2023-02-15T08:29:09;43.40;;;23.80;;
9076;SDS011;4574;51.072;17.174;2023-02-15T08:31:37;45.70;;;25.67;;
9076;SDS011;4574;51.072;17.174;2023-02-15T08:34:09;45.10;;;24.13;;
9076;SDS011;4574;51.072;17.174;2023-02-15T08:36:39;43.70;;;22.23;;
9076;SDS011;4574;51.072;17.174;2023-02-15T08:39:08;36.97;;;21.43;;
9076;SDS011;4574;51.072;17.174;2023-02-15T08:41:37;43.83;;;22.33;;
9076;SDS011;4574;51.072;17.174;2023-02-15T08:44:07;41.83;;;21.97;;
9076;SDS011;4574;51.072;17.174;2023-02-15T08:46:37;40.07;;;20.90;;
9076;SDS011;4574;51.072;17.174;2023-02-15T08:49:08;38.50;;;21.17;;
9076;SDS011;4574;51.072;17.174;2023-02-15T08:51:40;36.63;;;21.43;;
9076;SDS011;4574;51.072;17.174;2023-02-15T08:54:10;45.40;;;22.90;;
9076;SDS011;4574;51.072;17.174;2023-02-15T08:56:41;37.97;;;21.97;;
9076;SDS011;4574;51.072;17.174;2023-02-15T08:59:12;35.07;;;20.77;;
9076;SDS011;4574;51.072;17.174;2023-02-15T09:01:43;32.77;;;19.20;;
9076;SDS011;4574;51.072;17.174;2023-02-15T09:04:14;29.47;;;18.97;;
9076;SDS011;4574;51.072;17.174;2023-02-15T09:06:45;30.57;;;18.90;;
9076;SDS011;4574;51.072;17.174;2023-02-15T09:09:15;32.23;;;19.47;;
9076;SDS011;4574;51.072;17.174;2023-02-15T09:11:44;30.90;;;19.00;;
9076;SDS011;4574;51.072;17.174;2023-02-15T09:14:14;32.67;;;18.27;;
9076;SDS011;4574;51.072;17.174;2023-02-15T09:16:45;29.47;;;18.47;;
9076;SDS011;4574;51.072;17.174;2023-02-15T09:19:18;36.30;;;19.80;;
9076;SDS011;4574;51.072;17.174;2023-02-15T09:21:48;40.47;;;22.13;;
9076;SDS011;4574;51.072;17.174;2023-02-15T09:24:16;34.47;;;19.67;;
9076;SDS011;4574;51.072;17.174;2023-02-15T09:26:46;32.97;;;20.53;;
9076;SDS011;4574;51.072;17.174;2023-02-15T09:29:16;38.43;;;21.43;;
9076;SDS011;4574;51.072;17.174;2023-02-15T09:31:46;34.70;;;20.30;;
9076;SDS011;4574;51.072;17.174;2023-02-15T09:34:19;38.43;;;22.00;;
9076;SDS011;4574;51.072;17.174;2023-02-15T09:36:48;36.30;;;20.17;;
9076;SDS011;4574;51.072;17.174;2023-02-15T09:39:18;39.57;;;21.50;;
9076;SDS011;4574;51.072;17.174;2023-02-15T09:41:55;36.30;;;21.47;;
9076;SDS011;4574;51.072;17.174;2023-02-15T09:44:43;33.87;;;20.27;;
9076;SDS011;4574;51.072;17.174;2023-02-15T09:47:34;35.73;;;21.73;;
9076;SDS011;4574;51.072;17.174;2023-02-15T09:50:26;36.57;;;20.17;;
9076;SDS011;4574;51.072;17.174;2023-02-15T09:53:15;32.90;;;19.70;;
9076;SDS011;4574;51.072;17.174;2023-02-15T09:55:56;32.00;;;19.70;;
9076;SDS011;4574;51.072;17.174;2023-02-15T09:58:33;32.40;;;20.00;;
9076;SDS011;4574;51.072;17.174;2023-02-15T10:01:14;35.97;;;19.67;;
9076;SDS011;4574;51.072;17.174;2023-02-15T10:03:56;33.27;;;19.50;;
9076;SDS011;4574;51.072;17.174;2023-02-15T10:06:40;32.50;;;18.93;;
9076;SDS011;4574;51.072;17.174;2023-02-15T10:09:19;34.07;;;20.73;;
9076;SDS011;4574;51.072;17.174;2023-02-15T10:12:20;33.20;;;19.07;;
9076;SDS011;4574;51.072;17.174;2023-02-15T10:15:06;33.00;;;20.37;;
9076;SDS011;4574;51.072;17.174;2023-02-15T10:17:55;33.43;;;20.27;;
9076;SDS011;4574;51.072;17.174;2023-02-15T10:20:45;34.20;;;19.20;;
9076;SDS011;4574;51.072;17.174;2023-02-15T10:23:33;34.67;;;20.53;;
9076;SDS011;4574;51.072;17.174;2023-02-15T10:26:16;36.47;;;20.57;;
9076;SDS011;4574;51.072;17.174;2023-02-15T10:28:47;25.93;;;18.03;;
9076;SDS011;4574;51.072;17.174;2023-02-15T10:31:22;32.37;;;19.03;;
9076;SDS011;4574;51.072;17.174;2023-02-15T10:33:56;34.30;;;20.90;;
9076;SDS011;4574;51.072;17.174;2023-02-15T10:36:44;35.07;;;20.07;;
9076;SDS011;4574;51.072;17.174;2023-02-15T10:39:37;35.53;;;20.60;;
9076;SDS011;4574;51.072;17.174;2023-02-15T10:42:16;34.57;;;20.63;;
9076;SDS011;4574;51.072;17.174;2023-02-15T10:44:58;39.00;;;22.17;;
9076;SDS011;4574;51.072;17.174;2023-02-15T10:47:41;32.20;;;20.63;;
9076;SDS011;4574;51.072;17.174;2023-02-15T10:50:23;34.07;;;21.30;;
9076;SDS011;4574;51.072;17.174;2023-02-15T10:53:06;37.87;;;22.10;;
9076;SDS011;4574;51.072;17.174;2023-02-15T10:55:46;36.10;;;21.50;;
9076;SDS011;4574;51.072;17.174;2023-02-15T10:58:27;37.67;;;23.50;;
9076;SDS011;4574;51.072;17.174;2023-02-15T11:01:04;39.83;;;23.40;;
9076;SDS011;4574;51.072;17.174;2023-02-15T11:03:46;37.33;;;21.80;;
9076;SDS011;4574;51.072;17.174;2023-02-15T11:06:24;36.50;;;23.50;;
9076;SDS011;4574;51.072;17.174;2023-02-15T11:08:56;37.40;;;21.83;;
9076;SDS011;4574;51.072;17.174;2023-02-15T11:11:31;39.67;;;23.50;;
9076;SDS011;4574;51.072;17.174;2023-02-15T11:14:02;37.17;;;23.27;;
9076;SDS011;4574;51.072;17.174;2023-02-15T11:16:39;38.10;;;23.33;;
9076;SDS011;4574;51.072;17.174;2023-02-15T11:19:12;42.03;;;24.33;;
9076;SDS011;4574;51.072;17.174;2023-02-15T11:21:49;37.67;;;23.67;;
9076;SDS011;4574;51.072;17.174;2023-02-15T11:24:24;38.27;;;23.70;;
9076;SDS011;4574;51.072;17.174;2023-02-15T11:26:57;40.80;;;23.83;;
9076;SDS011;4574;51.072;17.174;2023-02-15T11:29:31;36.03;;;23.13;;
9076;SDS011;4574;51.072;17.174;2023-02-15T11:32:03;36.73;;;22.83;;
9076;SDS011;4574;51.072;17.174;2023-02-15T11:34:45;39.77;;;23.17;;
9076;SDS011;4574;51.072;17.174;2023-02-15T11:37:19;42.90;;;24.53;;
9076;SDS011;4574;51.072;17.174;2023-02-15T11:40:00;41.97;;;24.87;;
9076;SDS011;4574;51.072;17.174;2023-02-15T11:42:31;41.13;;;25.20;;
9076;SDS011;4574;51.072;17.174;2023-02-15T11:45:04;35.87;;;22.57;;
9076;SDS011;4574;51.072;17.174;2023-02-15T11:47:44;34.47;;;20.27;;
9076;SDS011;4574;51.072;17.174;2023-02-15T11:50:13;33.37;;;20.50;;
9076;SDS011;4574;51.072;17.174;2023-02-15T11:52:44;35.40;;;22.17;;
9076;SDS011;4574;51.072;17.174;2023-02-15T11:55:14;36.90;;;21.60;;
9076;SDS011;4574;51.072;17.174;2023-02-15T11:57:50;32.50;;;20.73;;
9076;SDS011;4574;51.072;17.174;2023-02-15T12:00:25;33.17;;;20.20;;
9076;SDS011;4574;51.072;17.174;2023-02-15T12:03:04;35.03;;;21.73;;
9076;SDS011;4574;51.072;17.174;2023-02-15T12:05:40;34.07;;;21.50;;
9076;SDS011;4574;51.072;17.174;2023-02-15T12:08:14;33.93;;;21.90;;
9076;SDS011;4574;51.072;17.174;2023-02-15T12:10:50;32.90;;;20.50;;
9076;SDS011;4574;51.072;17.174;2023-02-15T12:13:27;30.83;;;19.27;;
9076;SDS011;4574;51.072;17.174;2023-02-15T12:15:57;34.13;;;21.63;;
9076;SDS011;4574;51.072;17.174;2023-02-15T12:18:36;32.90;;;20.73;;
9076;SDS011;4574;51.072;17.174;2023-02-15T12:21:07;30.97;;;19.63;;
9076;SDS011;4574;51.072;17.174;2023-02-15T12:23:40;28.57;;;19.37;;
9076;SDS011;4574;51.072;17.174;2023-02-15T12:26:15;32.10;;;19.87;;
9076;SDS011;4574;51.072;17.174;2023-02-15T12:28:54;31.70;;;19.53;;
9076;SDS011;4574;51.072;17.174;2023-02-15T12:31:30;31.40;;;20.23;;
9076;SDS011;4574;51.072;17.174;2023-02-15T12:34:07;30.63;;;19.63;;
9076;SDS011;4574;51.072;17.174;2023-02-15T12:36:41;31.43;;;19.33;;
9076;SDS011;4574;51.072;17.174;2023-02-15T12:39:17;30.23;;;21.07;;
9076;SDS011;4574;51.072;17.174;2023-02-15T12:41:59;30.83;;;18.70;;
9076;SDS011;4574;51.072;17.174;2023-02-15T12:44:32;40.30;;;23.43;;
9076;SDS011;4574;51.072;17.174;2023-02-15T12:47:02;33.23;;;19.30;;
9076;SDS011;4574;51.072;17.174;2023-02-15T12:49:32;30.77;;;20.00;;
9076;SDS011;4574;51.072;17.174;2023-02-15T12:52:02;40.70;;;23.53;;
9076;SDS011;4574;51.072;17.174;2023-02-15T12:54:37;33.97;;;20.63;;
9076;SDS011;4574;51.072;17.174;2023-02-15T12:57:14;29.57;;;19.47;;
9076;SDS011;4574;51.072;17.174;2023-02-15T12:59:51;36.87;;;22.70;;
9076;SDS011;4574;51.072;17.174;2023-02-15T13:02:25;30.37;;;19.47;;
9076;SDS011;4574;51.072;17.174;2023-02-15T13:04:56;30.57;;;19.27;;
9076;SDS011;4574;51.072;17.174;2023-02-15T13:07:32;30.73;;;19.30;;
9076;SDS011;4574;51.072;17.174;2023-02-15T13:10:01;29.50;;;19.53;;
9076;SDS011;4574;51.072;17.174;2023-02-15T13:12:30;28.83;;;18.33;;
9076;SDS011;4574;51.072;17.174;2023-02-15T13:15:01;28.53;;;18.83;;
9076;SDS011;4574;51.072;17.174;2023-02-15T13:17:32;27.60;;;18.33;;
9076;SDS011;4574;51.072;17.174;2023-02-15T13:20:02;30.33;;;18.87;;
9076;SDS011;4574;51.072;17.174;2023-02-15T13:22:37;28.00;;;18.07;;
9076;SDS011;4574;51.072;17.174;2023-02-15T13:25:11;29.83;;;18.27;;
9076;SDS011;4574;51.072;17.174;2023-02-15T13:27:42;27.87;;;17.63;;
9076;SDS011;4574;51.072;17.174;2023-02-15T13:30:19;26.27;;;17.70;;
9076;SDS011;4574;51.072;17.174;2023-02-15T13:32:54;25.00;;;16.33;;
9076;SDS011;4574;51.072;17.174;2023-02-15T13:35:25;25.27;;;16.83;;
9076;SDS011;4574;51.072;17.174;2023-02-15T13:41:01;23.70;;;16.93;;
9076;SDS011;4574;51.072;17.174;2023-02-15T13:43:38;31.43;;;19.33;;
9076;SDS011;4574;51.072;17.174;2023-02-15T13:46:18;25.23;;;16.30;;
9076;SDS011;4574;51.072;17.174;2023-02-15T13:48:59;21.97;;;15.47;;
9076;SDS011;4574;51.072;17.174;2023-02-15T13:51:41;26.93;;;16.50;;
9076;SDS011;4574;51.072;17.174;2023-02-15T13:54:23;25.23;;;15.93;;
9076;SDS011;4574;51.072;17.174;2023-02-15T13:57:05;24.40;;;16.00;;
9076;SDS011;4574;51.072;17.174;2023-02-15T13:59:53;28.10;;;16.77;;
9076;SDS011;4574;51.072;17.174;2023-02-15T14:05:40;25.73;;;16.90;;
9076;SDS011;4574;51.072;17.174;2023-02-15T14:08:21;25.60;;;16.20;;
9076;SDS011;4574;51.072;17.174;2023-02-15T14:11:01;25.03;;;17.00;;
9076;SDS011;4574;51.072;17.174;2023-02-15T14:13:48;23.60;;;16.27;;
9076;SDS011;4574;51.072;17.174;2023-02-15T14:16:28;21.97;;;14.93;;
9076;SDS011;4574;51.072;17.174;2023-02-15T14:19:09;27.87;;;18.03;;
9076;SDS011;4574;51.072;17.174;2023-02-15T14:21:47;24.90;;;15.87;;
9076;SDS011;4574;51.072;17.174;2023-02-15T14:24:23;23.70;;;16.27;;
9076;SDS011;4574;51.072;17.174;2023-02-15T14:26:59;22.83;;;15.60;;
9076;SDS011;4574;51.072;17.174;2023-02-15T14:29:43;24.30;;;16.30;;
9076;SDS011;4574;51.072;17.174;2023-02-15T14:32:18;31.33;;;19.97;;
9076;SDS011;4574;51.072;17.174;2023-02-15T14:34:55;24.87;;;16.63;;
9076;SDS011;4574;51.072;17.174;2023-02-15T14:37:29;23.57;;;14.87;;
9076;SDS011;4574;51.072;17.174;2023-02-15T14:40:05;31.73;;;19.43;;
9076;SDS011;4574;51.072;17.174;2023-02-15T14:43:07;25.00;;;16.87;;
9076;SDS011;4574;51.072;17.174;2023-02-15T14:45:40;25.87;;;16.23;;
9076;SDS011;4574;51.072;17.174;2023-02-15T14:48:25;23.53;;;16.87;;
9076;SDS011;4574;51.072;17.174;2023-02-15T14:51:00;25.47;;;16.30;;
9076;SDS011;4574;51.072;17.174;2023-02-15T14:56:19;32.80;;;18.87;;
9076;SDS011;4574;51.072;17.174;2023-02-15T15:01:42;33.73;;;19.80;;
9076;SDS011;4574;51.072;17.174;2023-02-15T15:04:25;27.53;;;17.37;;
9076;SDS011;4574;51.072;17.174;2023-02-15T15:07:00;26.73;;;17.53;;
9076;SDS011;4574;51.072;17.174;2023-02-15T15:09:33;43.20;;;23.67;;
9076;SDS011;4574;51.072;17.174;2023-02-15T15:12:15;41.07;;;23.97;;
9076;SDS011;4574;51.072;17.174;2023-02-15T15:14:58;41.53;;;23.80;;
9076;SDS011;4574;51.072;17.174;2023-02-15T15:20:41;35.20;;;22.83;;
9076;SDS011;4574;51.072;17.174;2023-02-15T15:26:20;41.13;;;25.37;;
9076;SDS011;4574;51.072;17.174;2023-02-15T15:29:00;39.63;;;24.67;;
9076;SDS011;4574;51.072;17.174;2023-02-15T15:31:45;41.00;;;24.80;;
9076;SDS011;4574;51.072;17.174;2023-02-15T15:34:21;52.40;;;30.37;;
9076;SDS011;4574;51.072;17.174;2023-02-15T15:37:29;48.10;;;29.37;;
9076;SDS011;4574;51.072;17.174;2023-02-15T15:40:21;43.47;;;27.37;;
9076;SDS011;4574;51.072;17.174;2023-02-15T15:43:19;45.20;;;26.00;;
9076;SDS011;4574;51.072;17.174;2023-02-15T15:46:06;42.73;;;25.00;;